Time;durP1;ratioP1;P1;durP2;ratioP2;P2;SDS_P1;SDS_P2;PMS_P1;PMS_P2;Temp;Humidity;BMP_temperature;BMP_pressure;BME280_temperature;BME280_humidity;BME280_pressure;Samples;Min_cycle;Max_cycle;Signal;HPM_P1;HPM_P2
2021/11/18 00:00:33;;;;;;;6.50;4.53;;;2.30;99.90;;;;;;5052715;28;20059;-87
2021/11/18 00:03:01;;;;;;;6.57;4.05;;;2.10;99.90;;;;;;5052900;28;20057;-87
2021/11/18 00:05:29;;;;;;;8.00;4.50;;;2.00;99.90;;;;;;5035132;28;20057;-87
2021/11/18 00:07:57;;;;;;;6.72;5.75;;;2.00;99.90;;;;;;5034946;28;20063;-87
2021/11/18 00:10:25;;;;;;;8.90;5.53;;;2.00;99.90;;;;;;5035241;28;20412;-88
2021/11/18 00:12:54;;;;;;;8.48;5.43;;;2.10;99.90;;;;;;5034794;28;20045;-88
2021/11/18 00:15:25;;;;;;;7.78;5.70;;;2.20;99.90;;;;;;5034957;28;20061;-87
2021/11/18 00:17:59;;;;;;;8.02;5.93;;;2.30;99.90;;;;;;5035040;28;20048;-87
2021/11/18 00:20:29;;;;;;;11.02;6.68;;;2.40;99.90;;;;;;5035052;28;20144;-87
2021/11/18 00:22:56;;;;;;;6.78;5.75;;;2.40;99.90;;;;;;5035270;28;20045;-87
2021/11/18 00:25:24;;;;;;;8.73;5.95;;;2.50;99.90;;;;;;5035164;28;20596;-87
2021/11/18 00:27:51;;;;;;;8.85;6.35;;;2.60;99.90;;;;;;5035174;28;20051;-87
2021/11/18 00:30:19;;;;;;;12.00;7.35;;;2.70;99.90;;;;;;5035191;28;20103;-87
2021/11/18 00:32:46;;;;;;;9.13;6.70;;;2.90;99.90;;;;;;5034896;28;20507;-87
2021/11/18 00:35:17;;;;;;;8.20;6.13;;;3.00;99.90;;;;;;5034985;28;20049;-87
2021/11/18 00:37:45;;;;;;;9.32;6.45;;;3.00;99.90;;;;;;5052415;28;20085;-88
2021/11/18 00:40:14;;;;;;;8.60;6.28;;;3.00;99.90;;;;;;5035210;28;20045;-86
2021/11/18 00:42:41;;;;;;;10.88;7.10;;;3.10;99.90;;;;;;5034991;28;20457;-88
2021/11/18 00:45:09;;;;;;;9.88;7.00;;;3.00;99.90;;;;;;5052382;28;20398;-87
2021/11/18 00:47:36;;;;;;;11.13;6.03;;;2.90;99.90;;;;;;5052306;28;20505;-87
2021/11/18 00:50:06;;;;;;;10.45;6.57;;;2.90;99.90;;;;;;5052255;28;20053;-87
2021/11/18 00:52:33;;;;;;;9.00;5.65;;;2.90;99.90;;;;;;5054567;28;20416;-87
2021/11/18 00:55:00;;;;;;;12.57;7.47;;;3.10;99.90;;;;;;5038365;28;20053;-88
2021/11/18 00:57:27;;;;;;;10.90;6.85;;;2.90;99.90;;;;;;5038538;28;20049;-88
2021/11/18 00:59:54;;;;;;;9.43;6.35;;;2.90;99.90;;;;;;5038181;28;20144;-87
2021/11/18 01:02:21;;;;;;;7.20;6.03;;;2.90;99.90;;;;;;5056477;28;20056;-87
2021/11/18 01:04:48;;;;;;;12.05;6.45;;;3.00;99.90;;;;;;5055532;28;20063;-87
2021/11/18 01:07:15;;;;;;;9.20;5.95;;;3.10;99.90;;;;;;5038343;28;20049;-88
2021/11/18 01:09:42;;;;;;;9.40;6.85;;;3.20;99.90;;;;;;5055767;28;20053;-87
2021/11/18 01:12:11;;;;;;;10.45;5.90;;;3.20;99.90;;;;;;5037809;28;20057;-87
2021/11/18 01:14:38;;;;;;;8.82;5.97;;;3.20;99.90;;;;;;5055293;28;20076;-86
2021/11/18 01:17:05;;;;;;;8.75;6.07;;;3.20;99.90;;;;;;5055474;28;20113;-88
2021/11/18 01:19:33;;;;;;;11.10;5.75;;;3.40;99.90;;;;;;5037972;28;20492;-87
2021/11/18 01:22:02;;;;;;;8.98;5.40;;;3.30;99.90;;;;;;5037801;28;20579;-87
2021/11/18 01:24:29;;;;;;;6.55;5.40;;;3.30;99.90;;;;;;5037470;28;20511;-88
2021/11/18 01:26:56;;;;;;;10.75;5.75;;;3.20;99.90;;;;;;5037895;28;20041;-88
2021/11/18 01:29:24;;;;;;;8.73;4.57;;;3.00;99.90;;;;;;5037992;28;20108;-87
2021/11/18 01:31:51;;;;;;;7.57;5.03;;;3.00;99.90;;;;;;5037748;28;20053;-87
2021/11/18 01:34:19;;;;;;;5.38;4.88;;;2.90;99.90;;;;;;5037964;28;20139;-87
2021/11/18 01:36:46;;;;;;;8.23;5.38;;;2.90;99.90;;;;;;5055217;28;20048;-87
2021/11/18 01:39:13;;;;;;;6.72;5.30;;;2.80;99.90;;;;;;5038062;28;20052;-87
2021/11/18 01:41:41;;;;;;;8.23;5.03;;;2.70;99.90;;;;;;5055073;28;20386;-87
2021/11/18 01:44:17;;;;;;;6.53;4.63;;;2.50;99.90;;;;;;5037673;28;20049;-87
2021/11/18 01:46:44;;;;;;;9.95;4.60;;;2.40;99.90;;;;;;5054948;28;20416;-87
2021/11/18 01:49:11;;;;;;;6.47;4.45;;;2.30;99.90;;;;;;5037630;28;20132;-87
2021/11/18 01:51:49;;;;;;;6.60;4.00;;;2.20;99.90;;;;;;5037484;28;20132;-88
2021/11/18 01:54:19;;;;;;;5.68;3.63;;;2.10;99.90;;;;;;5037780;28;20527;-87
2021/11/18 01:56:47;;;;;;;5.80;3.80;;;2.00;99.90;;;;;;5037545;28;20507;-87
2021/11/18 01:59:18;;;;;;;4.88;3.63;;;1.90;99.90;;;;;;5037330;28;20053;-87
2021/11/18 02:01:47;;;;;;;10.68;5.10;;;1.90;99.90;;;;;;5037421;28;20407;-87
2021/11/18 02:04:20;;;;;;;7.10;4.70;;;1.70;99.90;;;;;;5036364;28;20053;-87
2021/11/18 02:06:51;;;;;;;6.57;5.13;;;1.70;99.90;;;;;;5036957;28;20075;-87
2021/11/18 02:09:22;;;;;;;8.25;5.20;;;1.60;99.90;;;;;;5037246;28;20136;-88
2021/11/18 02:12:06;;;;;;;13.77;4.95;;;1.70;99.90;;;;;;5054736;28;20049;-88
2021/11/18 02:14:33;;;;;;;;;;;1.60;99.90;;;;;;5034473;28;20045;-87
2021/11/18 02:17:01;;;;;;;8.32;4.00;;;1.60;99.90;;;;;;5036789;28;19921;-88
2021/11/18 02:19:34;;;;;;;8.10;5.15;;;1.60;99.90;;;;;;5054519;28;20049;-88
2021/11/18 02:22:01;;;;;;;5.97;5.15;;;1.50;99.90;;;;;;5037014;28;20508;-87
2021/11/18 02:24:33;;;;;;;11.65;5.82;;;1.40;99.90;;;;;;5036899;28;20053;-87
2021/11/18 02:27:00;;;;;;;11.82;5.57;;;1.40;99.90;;;;;;5036863;28;20489;-87
2021/11/18 02:29:27;;;;;;;10.50;5.82;;;1.40;99.90;;;;;;5054205;28;20084;-88
2021/11/18 02:31:58;;;;;;;7.78;4.90;;;1.40;99.90;;;;;;5054193;28;20047;-87
2021/11/18 02:34:56;;;;;;;8.73;5.22;;;1.40;99.90;;;;;;5036745;28;20106;-87
2021/11/18 02:37:24;;;;;;;9.00;4.82;;;1.40;99.90;;;;;;5036259;28;20045;-87
2021/11/18 02:39:51;;;;;;;7.60;4.70;;;1.40;99.90;;;;;;5053667;28;20052;-88
2021/11/18 02:42:20;;;;;;;4.63;3.92;;;1.30;99.90;;;;;;5054153;28;20124;-87
2021/11/18 02:44:47;;;;;;;6.22;4.35;;;1.40;99.90;;;;;;5036541;28;20493;-88
2021/11/18 02:47:14;;;;;;;10.20;4.70;;;1.30;99.90;;;;;;5036288;28;20059;-87
2021/11/18 02:49:48;;;;;;;5.78;4.30;;;1.30;99.90;;;;;;5054090;28;20123;-87
2021/11/18 02:52:21;;;;;;;6.20;3.95;;;1.40;99.90;;;;;;5036588;28;20052;-88
2021/11/18 02:54:48;;;;;;;;;;;1.40;99.90;;;;;;5036421;28;20059;-87
2021/11/18 02:57:14;;;;;;;7.50;4.28;;;1.40;99.90;;;;;;5036547;28;19921;-88
2021/11/18 02:59:41;;;;;;;5.78;4.30;;;1.40;99.90;;;;;;5036363;28;20049;-88
2021/11/18 03:02:09;;;;;;;7.25;4.22;;;1.40;99.90;;;;;;5035830;28;20052;-88
2021/11/18 03:04:36;;;;;;;8.55;4.65;;;1.30;99.90;;;;;;5053231;28;20140;-87
2021/11/18 03:07:03;;;;;;;7.18;4.55;;;1.20;99.90;;;;;;5036081;28;20492;-88
2021/11/18 03:09:31;;;;;;;4.18;3.67;;;1.10;99.90;;;;;;5053836;28;20111;-88
2021/11/18 03:11:58;;;;;;;5.20;3.80;;;1.10;99.90;;;;;;5036032;28;20416;-87
2021/11/18 03:14:30;;;;;;;6.32;3.33;;;1.10;99.90;;;;;;5035803;28;20057;-87
2021/11/18 03:16:58;;;;;;;5.97;3.30;;;1.00;99.90;;;;;;5053537;28;20413;-87
2021/11/18 03:19:24;;;;;;;9.32;4.07;;;1.00;99.90;;;;;;5053505;28;20088;-87
2021/11/18 03:21:52;;;;;;;4.82;3.95;;;1.00;99.90;;;;;;5035931;28;20256;-88
2021/11/18 03:24:19;;;;;;;3.97;3.67;;;0.90;99.90;;;;;;5036075;28;20053;-87
2021/11/18 03:26:47;;;;;;;9.77;4.70;;;0.80;99.90;;;;;;5035954;28;20071;-87
2021/11/18 03:29:14;;;;;;;8.57;4.10;;;0.80;99.90;;;;;;5035906;28;20044;-88
2021/11/18 03:31:41;;;;;;;5.50;3.75;;;0.80;99.90;;;;;;5035943;28;20057;-88
2021/11/18 03:34:12;;;;;;;6.47;4.90;;;0.90;99.90;;;;;;5053177;28;20141;-88
2021/11/18 03:36:39;;;;;;;7.60;4.40;;;0.80;99.90;;;;;;5053137;28;20067;-87
2021/11/18 03:39:09;;;;;;;5.40;3.67;;;0.80;99.90;;;;;;5053367;28;20403;-88
2021/11/18 03:41:38;;;;;;;10.70;4.70;;;0.80;99.90;;;;;;5036022;28;20128;-88
2021/11/18 03:44:08;;;;;;;7.88;6.22;;;0.80;99.90;;;;;;5053207;28;20048;-88
2021/11/18 03:46:44;;;;;;;9.77;6.30;;;0.80;99.90;;;;;;5052722;28;20797;-87
2021/11/18 03:49:12;;;;;;;5.05;4.00;;;0.80;99.90;;;;;;5034425;28;20052;-87
2021/11/18 03:51:39;;;;;;;6.47;4.20;;;0.80;99.90;;;;;;5053188;28;20095;-87
2021/11/18 03:54:09;;;;;;;5.95;4.55;;;0.80;99.90;;;;;;5035740;28;20116;-88
2021/11/18 03:56:39;;;;;;;7.78;4.72;;;0.90;99.90;;;;;;5052804;28;20051;-88
2021/11/18 03:59:09;;;;;;;6.65;4.85;;;0.90;99.90;;;;;;5035476;28;20053;-88
2021/11/18 04:01:37;;;;;;;7.80;4.90;;;1.00;99.90;;;;;;5035756;28;20052;-88
2021/11/18 04:04:06;;;;;;;9.98;6.70;;;1.00;99.90;;;;;;5035641;28;20052;-88
2021/11/18 04:06:34;;;;;;;8.27;5.30;;;1.10;99.90;;;;;;5035601;28;20106;-88
2021/11/18 04:09:01;;;;;;;12.02;6.25;;;1.10;99.90;;;;;;5035586;28;20053;-88
2021/11/18 04:11:27;;;;;;;7.93;5.10;;;1.10;99.90;;;;;;5035515;28;20049;-88
2021/11/18 04:13:55;;;;;;;10.73;6.00;;;1.10;99.90;;;;;;5052814;28;20446;-88
2021/11/18 04:16:22;;;;;;;9.00;5.70;;;1.10;99.90;;;;;;5035243;28;20087;-87
2021/11/18 04:18:49;;;;;;;15.00;6.18;;;1.10;99.90;;;;;;5035252;28;20123;-88
2021/11/18 04:21:16;;;;;;;8.20;5.13;;;1.20;99.90;;;;;;5053032;28;20139;-88
2021/11/18 04:23:43;;;;;;;12.90;5.47;;;1.10;99.90;;;;;;5035274;28;20056;-88
2021/11/18 04:26:10;;;;;;;6.18;4.85;;;1.10;99.90;;;;;;5035097;28;20056;-87
2021/11/18 04:28:38;;;;;;;6.35;4.80;;;1.10;99.90;;;;;;5038442;28;20045;-87
2021/11/18 04:31:12;;;;;;;5.05;3.78;;;1.10;99.90;;;;;;5038802;28;20507;-88
2021/11/18 04:33:39;;;;;;;6.40;4.60;;;1.20;99.90;;;;;;5038921;28;20052;-88
2021/11/18 04:36:08;;;;;;;7.45;4.35;;;1.20;99.90;;;;;;5055867;28;20489;-88
2021/11/18 04:38:35;;;;;;;9.43;4.47;;;1.30;99.90;;;;;;5055985;28;20499;-88
2021/11/18 04:41:03;;;;;;;12.02;4.70;;;1.30;99.90;;;;;;5038867;28;20053;-88
2021/11/18 04:43:30;;;;;;;7.68;4.15;;;1.30;99.90;;;;;;5038854;28;20106;-88
2021/11/18 04:45:58;;;;;;;7.10;3.92;;;1.30;99.90;;;;;;5056351;28;20053;-88
2021/11/18 04:48:25;;;;;;;14.75;4.85;;;1.20;99.90;;;;;;5038569;28;20089;-88
2021/11/18 04:50:52;;;;;;;7.72;5.43;;;1.30;99.90;;;;;;5038912;28;20080;-88
2021/11/18 04:53:19;;;;;;;14.50;6.07;;;1.30;99.90;;;;;;5038607;28;20051;-88
2021/11/18 04:55:46;;;;;;;10.90;5.32;;;1.30;99.90;;;;;;5055982;28;20041;-88
2021/11/18 04:58:13;;;;;;;11.20;5.20;;;1.30;99.90;;;;;;5038695;28;20057;-88
2021/11/18 05:00:45;;;;;;;9.75;5.13;;;1.40;99.90;;;;;;5038619;28;20057;-88
2021/11/18 05:03:12;;;;;;;7.10;4.85;;;1.20;99.90;;;;;;5038861;28;20056;-88
2021/11/18 05:05:40;;;;;;;6.97;4.30;;;1.30;99.90;;;;;;5055453;28;20053;-88
2021/11/18 05:08:07;;;;;;;19.65;5.78;;;1.30;99.90;;;;;;5038281;28;20406;-88
2021/11/18 05:10:34;;;;;;;17.65;5.22;;;1.40;99.90;;;;;;5038193;28;20079;-88
2021/11/18 05:13:01;;;;;;;13.10;5.55;;;1.40;99.90;;;;;;5038413;28;20057;-87
2021/11/18 05:15:30;;;;;;;14.82;5.97;;;1.40;99.90;;;;;;5038380;28;20045;-88
2021/11/18 05:17:57;;;;;;;10.02;5.30;;;1.50;99.90;;;;;;5055650;28;20049;-88
2021/11/18 05:20:26;;;;;;;7.07;5.05;;;1.40;99.90;;;;;;5037626;28;20420;-88
2021/11/18 05:22:54;;;;;;;12.65;5.82;;;1.50;99.90;;;;;;5037847;28;20144;-87
2021/11/18 05:25:24;;;;;;;11.30;5.57;;;1.50;99.90;;;;;;5038138;28;20056;-88
2021/11/18 05:27:51;;;;;;;14.85;5.80;;;1.50;99.90;;;;;;5037817;28;20045;-87
2021/11/18 05:30:19;;;;;;;18.52;11.52;;;1.50;99.90;;;;;;5038085;28;20049;-87
2021/11/18 05:32:47;;;;;;;16.23;7.10;;;1.50;99.90;;;;;;5037832;28;20044;-88
2021/11/18 05:35:13;;;;;;;11.32;5.22;;;1.60;99.90;;;;;;5037854;28;20077;-87
2021/11/18 05:37:40;;;;;;;14.55;7.55;;;1.60;99.90;;;;;;5037368;28;20103;-87
2021/11/18 05:40:09;;;;;;;16.02;6.75;;;1.60;99.90;;;;;;5037476;28;20044;-88
2021/11/18 05:42:37;;;;;;;16.15;8.70;;;1.50;99.90;;;;;;5037430;28;20045;-88
2021/11/18 05:45:13;;;;;;;22.65;8.07;;;1.50;99.90;;;;;;5036155;28;20056;-88
2021/11/18 05:47:41;;;;;;;12.18;5.97;;;1.50;99.90;;;;;;5054934;28;20496;-88
2021/11/18 05:50:09;;;;;;;11.80;6.13;;;1.60;99.90;;;;;;5037375;28;20428;-88
2021/11/18 05:52:37;;;;;;;15.23;6.85;;;1.70;99.90;;;;;;5054681;28;20048;-88
2021/11/18 05:55:05;;;;;;;11.55;6.20;;;1.70;99.90;;;;;;5037407;28;20049;-88
2021/11/18 05:57:32;;;;;;;12.52;7.45;;;1.70;99.90;;;;;;5054879;28;20045;-88
2021/11/18 05:59:59;;;;;;;12.52;7.13;;;1.70;99.90;;;;;;5037219;28;20045;-88
2021/11/18 06:02:26;;;;;;;17.95;8.77;;;1.80;99.90;;;;;;5036988;28;20048;-88
2021/11/18 06:04:53;;;;;;;17.02;7.35;;;1.90;99.90;;;;;;5037050;28;20056;-88
2021/11/18 06:07:20;;;;;;;12.18;6.25;;;1.80;99.90;;;;;;5054941;28;20433;-88
2021/11/18 06:09:47;;;;;;;15.55;7.38;;;1.90;99.90;;;;;;5036816;28;20071;-88
2021/11/18 06:12:14;;;;;;;25.17;6.88;;;1.80;99.90;;;;;;5036375;28;20057;-88
2021/11/18 06:14:41;;;;;;;18.23;8.15;;;1.70;99.90;;;;;;5036588;28;20055;-88
2021/11/18 06:17:07;;;;;;;19.50;7.07;;;1.70;99.90;;;;;;5036676;28;20094;-88
2021/11/18 06:19:34;;;;;;;25.10;7.90;;;1.70;99.90;;;;;;5036770;28;20056;-88
2021/11/18 06:22:01;;;;;;;21.83;6.75;;;1.80;99.90;;;;;;5036367;28;20135;-88
2021/11/18 06:24:29;;;;;;;32.60;8.25;;;1.80;99.90;;;;;;5035381;28;20048;-87
2021/11/18 06:26:57;;;;;;;14.70;6.55;;;1.80;99.90;;;;;;5036538;28;20051;-88
2021/11/18 06:29:24;;;;;;;27.17;8.98;;;1.70;99.90;;;;;;5036968;28;20044;-88
2021/11/18 06:31:54;;;;;;;22.25;8.43;;;1.80;99.90;;;;;;5054264;28;20049;-88
2021/11/18 06:34:22;;;;;;;180.40;67.13;;;1.70;99.90;;;;;;5054567;28;20048;-88
2021/11/18 06:36:49;;;;;;;51.58;17.23;;;1.80;99.90;;;;;;5036534;28;20052;-88
2021/11/18 06:39:16;;;;;;;65.18;28.13;;;1.80;99.90;;;;;;5054346;28;20051;-88
2021/11/18 06:41:43;;;;;;;74.93;34.45;;;1.80;99.90;;;;;;5036391;28;20052;-88
2021/11/18 06:44:11;;;;;;;66.47;27.10;;;1.80;99.90;;;;;;5036183;28;20067;-88
2021/11/18 06:46:38;;;;;;;29.00;13.07;;;1.80;99.90;;;;;;5035929;28;20061;-87
2021/11/18 06:49:08;;;;;;;41.60;22.73;;;1.80;99.90;;;;;;5035868;28;20503;-88
2021/11/18 06:51:38;;;;;;;54.53;26.17;;;1.90;99.90;;;;;;5036463;28;20049;-88
2021/11/18 06:54:04;;;;;;;47.17;23.55;;;2.00;99.90;;;;;;5036150;28;20047;-88
2021/11/18 06:56:33;;;;;;;49.85;23.33;;;2.10;99.90;;;;;;5038111;28;20057;-88
2021/11/18 06:59:01;;;;;;;41.40;16.88;;;2.20;99.90;;;;;;5039476;28;20413;-88
2021/11/18 07:01:27;;;;;;;40.28;19.63;;;2.20;99.90;;;;;;5045185;28;20044;-88
2021/11/18 07:03:55;;;;;;;37.15;16.27;;;2.20;99.90;;;;;;5046614;28;20048;-88
2021/11/18 07:06:24;;;;;;;30.02;15.43;;;2.30;99.90;;;;;;5045154;28;20045;-88
2021/11/18 07:08:51;;;;;;;34.67;10.52;;;2.40;99.90;;;;;;5044588;28;20052;-88
2021/11/18 07:11:21;;;;;;;28.83;13.15;;;2.40;99.90;;;;;;5045743;28;20048;-88
2021/11/18 07:13:48;;;;;;;38.10;16.35;;;2.50;99.90;;;;;;5047027;28;20058;-89
2021/11/18 07:16:17;;;;;;;38.97;18.50;;;2.60;99.90;;;;;;5046438;28;20072;-88
2021/11/18 07:18:44;;;;;;;42.47;18.05;;;2.70;99.90;;;;;;5044215;28;20045;-88
2021/11/18 07:21:13;;;;;;;34.75;16.52;;;2.80;99.90;;;;;;5052517;28;20492;-88
2021/11/18 07:23:41;;;;;;;39.80;16.45;;;2.80;99.90;;;;;;5055525;28;20067;-87
2021/11/18 07:26:09;;;;;;;28.67;13.95;;;2.80;99.90;;;;;;5055319;28;20048;-88
2021/11/18 07:28:39;;;;;;;92.25;42.00;;;2.70;99.90;;;;;;5055487;28;20041;-88
2021/11/18 07:31:09;;;;;;;48.33;24.25;;;2.70;99.90;;;;;;5055611;28;20055;-88
2021/11/18 07:33:36;;;;;;;31.23;14.60;;;2.80;99.90;;;;;;5073197;28;20054;-88
2021/11/18 07:36:03;;;;;;;129.65;69.90;;;2.90;99.90;;;;;;5072786;28;20080;-88
2021/11/18 07:38:31;;;;;;;60.90;29.88;;;2.80;99.90;;;;;;5054852;28;20057;-87
2021/11/18 07:41:00;;;;;;;31.33;16.88;;;2.90;99.90;;;;;;5072672;28;20053;-88
2021/11/18 07:43:33;;;;;;;40.05;19.02;;;2.90;99.90;;;;;;5055450;28;20049;-88
2021/11/18 07:46:20;;;;;;;61.63;32.55;;;2.90;99.90;;;;;;5057738;28;20048;-89
2021/11/18 07:48:48;;;;;;;94.38;48.40;;;3.10;99.90;;;;;;5055236;28;20084;-87
2021/11/18 07:51:18;;;;;;;105.07;49.20;;;3.10;99.90;;;;;;5054835;28;20098;-87
2021/11/18 07:53:47;;;;;;;68.78;32.30;;;3.30;99.90;;;;;;5055161;28;20488;-87
2021/11/18 07:56:14;;;;;;;118.82;50.28;;;3.40;99.90;;;;;;5072815;28;20088;-88
2021/11/18 07:58:41;;;;;;;36.03;18.05;;;3.40;99.90;;;;;;5054980;28;20056;-86
2021/11/18 08:01:10;;;;;;;66.97;32.08;;;3.40;99.90;;;;;;5054989;28;20053;-88
2021/11/18 08:03:37;;;;;;;60.97;29.63;;;3.40;99.90;;;;;;5058965;28;20477;-88
2021/11/18 08:06:08;;;;;;;93.75;45.38;;;3.50;99.90;;;;;;5076440;28;20055;-88
2021/11/18 08:08:35;;;;;;;31.15;15.25;;;3.60;99.90;;;;;;5058908;28;20044;-88
2021/11/18 08:11:02;;;;;;;43.42;17.00;;;3.70;99.90;;;;;;5059453;28;20106;-88
2021/11/18 08:13:29;;;;;;;65.35;20.48;;;3.80;99.90;;;;;;5076439;28;20079;-88
2021/11/18 08:15:56;;;;;;;32.58;18.45;;;3.90;99.90;;;;;;5058109;28;20044;-88
2021/11/18 08:18:23;;;;;;;40.90;20.75;;;4.10;99.90;;;;;;5054957;28;20052;-88
2021/11/18 08:20:50;;;;;;;42.15;24.50;;;4.20;99.90;;;;;;5048285;28;20041;-88
2021/11/18 08:23:16;;;;;;;66.22;30.42;;;4.30;99.90;;;;;;5057268;28;20045;-88
2021/11/18 08:25:49;;;;;;;78.18;27.15;;;4.40;99.90;;;;;;5076271;28;20467;-88
2021/11/18 08:28:16;;;;;;;61.25;27.95;;;4.40;99.90;;;;;;5058455;28;20053;-88
2021/11/18 08:30:43;;;;;;;59.60;25.55;;;4.40;99.90;;;;;;5058725;28;20059;-88
2021/11/18 08:33:11;;;;;;;71.55;41.22;;;4.50;99.90;;;;;;5059119;28;20477;-88
2021/11/18 08:35:39;;;;;;;43.00;20.83;;;4.50;99.90;;;;;;5076220;28;20132;-88
2021/11/18 08:38:10;;;;;;;46.85;18.83;;;4.50;99.90;;;;;;5058736;28;20140;-88
2021/11/18 08:40:40;;;;;;;42.13;18.45;;;4.50;99.90;;;;;;5058548;28;20463;-88
2021/11/18 08:43:08;;;;;;;30.27;14.52;;;4.50;99.90;;;;;;5058716;28;20055;-88
2021/11/18 08:45:36;;;;;;;58.00;27.02;;;4.60;99.90;;;;;;5058211;28;20062;-88
2021/11/18 08:48:05;;;;;;;48.50;22.90;;;4.80;99.90;;;;;;5057406;28;20139;-88
2021/11/18 08:50:34;;;;;;;52.38;22.50;;;5.00;99.90;;;;;;5057277;28;20054;-88
2021/11/18 08:53:02;;;;;;;45.50;16.75;;;5.10;99.90;;;;;;5074819;28;20052;-87
2021/11/18 08:55:33;;;;;;;36.00;15.18;;;5.30;99.90;;;;;;5074845;28;20048;-88
2021/11/18 08:58:00;;;;;;;19.33;10.65;;;5.40;99.90;;;;;;5057334;28;20147;-89
2021/11/18 09:00:36;;;;;;;17.20;9.15;;;5.50;99.90;;;;;;5056889;28;20485;-88
2021/11/18 09:03:03;;;;;;;17.60;8.68;;;5.70;99.90;;;;;;5056880;28;20080;-88
2021/11/18 09:05:31;;;;;;;11.75;7.00;;;6.00;99.90;;;;;;5074342;28;20056;-89
2021/11/18 09:07:59;;;;;;;15.68;7.45;;;6.30;99.90;;;;;;5070426;28;20427;-89
2021/11/18 09:10:27;;;;;;;10.48;6.18;;;6.60;99.90;;;;;;5054137;28;20490;-87
2021/11/18 09:12:54;;;;;;;13.15;6.03;;;6.80;99.90;;;;;;5056599;28;20104;-88
2021/11/18 09:15:24;;;;;;;12.35;6.40;;;7.00;99.90;;;;;;5057126;28;20094;-87
2021/11/18 09:17:51;;;;;;;15.15;6.22;;;7.20;99.90;;;;;;5056504;28;20041;-89
2021/11/18 09:20:21;;;;;;;13.40;5.80;;;7.40;99.90;;;;;;5074386;28;20049;-89
2021/11/18 09:22:48;;;;;;;8.93;5.70;;;7.50;99.90;;;;;;5056697;28;20054;-89
2021/11/18 09:25:17;;;;;;;9.13;4.85;;;7.70;99.90;;;;;;5074363;28;20054;-88
2021/11/18 09:27:49;;;;;;;10.18;4.88;;;7.80;99.90;;;;;;5056598;28;20088;-88
2021/11/18 09:30:24;;;;;;;17.77;6.07;;;7.90;99.90;;;;;;5056622;28;20050;-89
2021/11/18 09:32:52;;;;;;;13.18;5.40;;;8.00;99.90;;;;;;5056235;28;20092;-88
2021/11/18 09:35:23;;;;;;;11.23;5.55;;;8.20;99.90;;;;;;5056385;28;20048;-89
2021/11/18 09:37:50;;;;;;;14.30;5.50;;;8.30;99.90;;;;;;5074145;28;20058;-89
2021/11/18 09:40:22;;;;;;;10.32;5.28;;;8.50;99.90;;;;;;5056634;28;20053;-87
2021/11/18 09:43:29;;;;;;;6.60;5.03;;;8.90;99.90;;;;;;5056320;28;20054;-89
2021/11/18 09:49:24;;;;;;;9.80;5.10;;;9.80;99.90;;;;;;5113750;27;20383;-83
2021/11/18 09:52:17;;;;;;;7.82;4.50;;;10.60;99.90;;;;;;5112711;28;20559;-81
2021/11/18 09:54:55;;;;;;;13.43;4.88;;;10.50;99.90;;;;;;5112665;28;20087;-81
2021/11/18 09:57:54;;;;;;;8.98;5.10;;;11.00;99.90;;;;;;5111286;28;20143;-82
2021/11/18 10:01:01;;;;;;;9.07;5.07;;;11.10;99.90;;;;;;5111413;28;20139;-81
2021/11/18 10:03:47;;;;;;;10.48;5.03;;;11.40;99.90;;;;;;5112297;28;20048;-82
2021/11/18 10:06:34;;;;;;;16.55;5.97;;;11.40;99.90;;;;;;5111256;28;20134;-81
2021/11/18 10:09:12;;;;;;;8.73;4.75;;;11.50;99.90;;;;;;5112790;28;20080;-82
2021/11/18 10:12:01;;;;;;;13.57;5.70;;;11.30;99.90;;;;;;5112570;28;20135;-81
2021/11/18 10:14:49;;;;;;;8.90;5.28;;;11.00;99.90;;;;;;5111948;28;20504;-81
2021/11/18 10:17:25;;;;;;;10.95;5.55;;;10.80;99.90;;;;;;5112690;28;20131;-82
2021/11/18 10:20:11;;;;;;;9.77;5.70;;;10.70;99.90;;;;;;5110855;28;20048;-82
2021/11/18 10:22:46;;;;;;;9.50;5.57;;;10.50;99.90;;;;;;5112394;28;20512;-83
2021/11/18 10:25:17;;;;;;;13.05;5.30;;;10.30;99.90;;;;;;5112812;28;20121;-82
2021/11/18 10:27:46;;;;;;;7.75;5.93;;;10.10;99.90;;;;;;5112425;28;20048;-82
2021/11/18 10:30:43;;;;;;;8.90;5.75;;;9.90;99.90;;;;;;5113913;28;20044;-82
2021/11/18 10:33:14;;;;;;;6.25;4.85;;;9.80;99.90;;;;;;5112524;28;20055;-82
2021/11/18 10:35:53;;;;;;;8.80;5.40;;;9.70;99.90;;;;;;5110757;28;20546;-81
2021/11/18 10:38:37;;;;;;;12.07;5.22;;;9.70;99.90;;;;;;5112239;28;20048;-81
2021/11/18 10:41:16;;;;;;;13.57;5.38;;;9.80;99.90;;;;;;5111001;28;20055;-82
2021/11/18 10:44:01;;;;;;;7.53;5.05;;;9.70;99.90;;;;;;5111096;28;20405;-82
2021/11/18 10:46:36;;;;;;;9.90;4.65;;;9.70;99.90;;;;;;5110802;28;20139;-82
2021/11/18 10:49:11;;;;;;;12.23;5.57;;;9.60;99.90;;;;;;5111985;28;20048;-82
2021/11/18 10:51:54;;;;;;;8.13;5.53;;;9.60;99.90;;;;;;5111180;28;20051;-81
2021/11/18 10:54:46;;;;;;;16.42;7.35;;;9.60;99.90;;;;;;5110335;28;20123;-82
2021/11/18 10:57:16;;;;;;;9.43;5.13;;;9.60;99.90;;;;;;5103220;28;20048;-82
2021/11/18 10:59:53;;;;;;;9.20;5.28;;;9.60;99.90;;;;;;5093145;28;20574;-82
2021/11/18 11:02:23;;;;;;;10.27;6.43;;;9.50;99.90;;;;;;5077828;28;20072;-83
2021/11/18 11:04:56;;;;;;;13.82;6.38;;;9.50;99.90;;;;;;5079749;28;20076;-82
2021/11/18 11:07:42;;;;;;;8.65;5.03;;;9.30;99.90;;;;;;5079840;28;20127;-83
2021/11/18 11:10:13;;;;;;;11.13;5.45;;;9.30;99.90;;;;;;5079983;28;20049;-82
2021/11/18 11:12:59;;;;;;;9.88;5.65;;;9.20;99.90;;;;;;5079351;28;20051;-82
2021/11/18 11:15:50;;;;;;;8.55;5.65;;;9.30;99.90;;;;;;5079531;28;20090;-82
2021/11/18 11:18:20;;;;;;;11.80;5.78;;;9.30;99.90;;;;;;5079464;28;20057;-82
2021/11/18 11:20:51;;;;;;;19.25;6.68;;;9.50;99.90;;;;;;5079726;28;20114;-83
2021/11/18 11:23:34;;;;;;;9.70;5.70;;;9.60;99.90;;;;;;5079312;28;20049;-82
2021/11/18 11:26:19;;;;;;;6.53;5.53;;;9.40;99.90;;;;;;5079806;28;20405;-82
2021/11/18 11:29:08;;;;;;;8.07;4.90;;;9.30;99.90;;;;;;5084059;28;20128;-82
2021/11/18 11:32:01;;;;;;;10.88;5.80;;;9.30;99.90;;;;;;5091377;28;20108;-82
2021/11/18 11:34:38;;;;;;;11.32;6.20;;;9.40;99.90;;;;;;5087921;28;20048;-82
2021/11/18 11:37:29;;;;;;;13.70;5.90;;;9.40;99.90;;;;;;5089594;28;20406;-82
2021/11/18 11:40:28;;;;;;;15.45;6.20;;;9.40;99.90;;;;;;5078235;28;20129;-82
2021/11/18 11:43:16;;;;;;;7.88;5.55;;;9.30;99.90;;;;;;5065309;28;20075;-81
2021/11/18 11:46:10;;;;;;;7.82;5.43;;;9.30;99.90;;;;;;5078199;28;20048;-82
2021/11/18 11:48:56;;;;;;;7.45;5.35;;;9.20;99.90;;;;;;5076443;28;20106;-82
2021/11/18 11:51:39;;;;;;;28.85;7.85;;;9.20;99.90;;;;;;5075526;28;20123;-82
2021/11/18 11:54:28;;;;;;;10.05;5.65;;;9.20;99.90;;;;;;5075584;28;20132;-81
2021/11/18 11:57:16;;;;;;;10.75;5.13;;;9.10;99.90;;;;;;5076239;28;20051;-81
2021/11/18 11:59:50;;;;;;;8.65;5.18;;;9.20;99.90;;;;;;5075832;28;20080;-82
2021/11/18 12:02:37;;;;;;;12.07;5.63;;;9.20;99.90;;;;;;5077441;28;20425;-82
2021/11/18 12:05:19;;;;;;;10.23;5.00;;;9.20;99.90;;;;;;5076926;28;20151;-82
2021/11/18 12:08:11;;;;;;;9.07;5.88;;;9.20;99.90;;;;;;5076802;28;20051;-81
2021/11/18 12:10:55;;;;;;;12.48;6.03;;;9.20;99.90;;;;;;5074557;28;20112;-82
2021/11/18 12:13:39;;;;;;;23.10;7.35;;;9.10;99.90;;;;;;5074908;28;20638;-80
2021/11/18 12:16:25;;;;;;;10.70;5.47;;;9.20;99.90;;;;;;5077413;28;20048;-82
2021/11/18 12:19:39;;;;;;;6.82;4.93;;;9.00;99.90;;;;;;5075676;28;20059;-82
2021/11/18 12:22:26;;;;;;;;;;;8.90;99.90;;;;;;5077855;28;20128;-82
2021/11/18 12:25:22;;;;;;;10.38;5.38;;;8.90;99.90;;;;;;5075731;28;19920;-82
2021/11/18 12:27:49;;;;;;;7.32;4.80;;;8.90;99.90;;;;;;5077972;28;20087;-82
2021/11/18 12:30:47;;;;;;;12.68;5.07;;;9.00;99.90;;;;;;5075364;28;20186;-81
2021/11/18 12:33:20;;;;;;;8.15;4.57;;;9.10;99.90;;;;;;5076670;28;20136;-82
2021/11/18 12:36:25;;;;;;;8.68;4.20;;;9.20;99.90;;;;;;5076497;28;20045;-82
2021/11/18 12:38:55;;;;;;;7.50;4.18;;;9.20;99.90;;;;;;5074493;28;20088;-81
2021/11/18 12:41:47;;;;;;;6.45;4.10;;;9.30;99.90;;;;;;5074577;28;20072;-82
2021/11/18 12:44:32;;;;;;;14.85;4.68;;;9.40;99.90;;;;;;5074916;28;20084;-82
2021/11/18 12:47:35;;;;;;;7.18;4.13;;;9.30;99.90;;;;;;5074532;28;20469;-81
2021/11/18 12:50:26;;;;;;;9.95;4.35;;;9.20;99.90;;;;;;5074696;28;20080;-82
2021/11/18 12:53:08;;;;;;;7.97;4.40;;;9.10;99.90;;;;;;5074218;28;20052;-81
2021/11/18 12:55:45;;;;;;;6.30;4.38;;;9.20;99.90;;;;;;5074570;28;20044;-82
2021/11/18 12:58:24;;;;;;;12.45;4.70;;;9.30;99.90;;;;;;5074471;28;20144;-82
2021/11/18 13:01:01;;;;;;;13.02;4.45;;;9.50;99.90;;;;;;5075858;28;20048;-81
2021/11/18 13:03:46;;;;;;;6.60;3.65;;;9.60;99.90;;;;;;5073882;28;20513;-82
2021/11/18 13:06:36;;;;;;;11.48;4.78;;;9.60;99.90;;;;;;5083910;28;20068;-81
2021/11/18 13:09:15;;;;;;;7.57;4.45;;;9.50;99.90;;;;;;5094252;28;20080;-79
2021/11/18 13:11:41;;;;;;;9.77;4.63;;;9.40;99.90;;;;;;5103549;28;20071;-79
2021/11/18 13:14:08;;;;;;;9.27;4.35;;;9.30;99.90;;;;;;5100818;28;20122;-79
2021/11/18 13:16:47;;;;;;;7.55;4.18;;;9.20;99.90;;;;;;5105851;28;20063;-79
2021/11/18 13:19:25;;;;;;;8.90;4.70;;;9.10;99.90;;;;;;5101596;28;20131;-79